sensor_id;sensor_type;location;lat;lon;timestamp;pressure;altitude;pressure_sealevel;temperature;humidity
63395;BME280;49531;-34.520;150.798;2023-03-15T00:01:03;100404.31;;;27.50;56.66
63395;BME280;49531;-34.520;150.798;2023-03-15T00:03:33;100396.56;;;27.52;56.50
63395;BME280;49531;-34.520;150.798;2023-03-15T00:06:03;100405.19;;;27.59;56.19
63395;BME280;49531;-34.520;150.798;2023-03-15T00:08:30;100411.81;;;27.67;56.31
63395;BME280;49531;-34.520;150.798;2023-03-15T00:10:59;100411.69;;;27.72;56.44
63395;BME280;49531;-34.520;150.798;2023-03-15T00:13:26;100411.88;;;27.75;56.32
63395;BME280;49531;-34.520;150.798;2023-03-15T00:15:56;100406.06;;;27.77;56.27
63395;BME280;49531;-34.520;150.798;2023-03-15T00:18:24;100403.97;;;27.82;56.26
63395;BME280;49531;-34.520;150.798;2023-03-15T00:20:52;100402.41;;;27.90;56.11
63395;BME280;49531;-34.520;150.798;2023-03-15T00:23:20;100391.41;;;27.90;55.96
63395;BME280;49531;-34.520;150.798;2023-03-15T00:25:48;100401.13;;;27.96;56.11
63395;BME280;49531;-34.520;150.798;2023-03-15T00:28:16;100398.88;;;27.98;55.90
63395;BME280;49531;-34.520;150.798;2023-03-15T00:30:44;100399.19;;;28.05;55.82
63395;BME280;49531;-34.520;150.798;2023-03-15T00:33:12;100385.16;;;28.07;55.81
63395;BME280;49531;-34.520;150.798;2023-03-15T00:35:42;100389.03;;;28.14;55.57
63395;BME280;49531;-34.520;150.798;2023-03-15T00:38:10;100387.09;;;28.15;55.71
63395;BME280;49531;-34.520;150.798;2023-03-15T00:40:37;100383.06;;;28.12;55.74
63395;BME280;49531;-34.520;150.798;2023-03-15T00:43:04;100371.88;;;28.00;56.23
63395;BME280;49531;-34.520;150.798;2023-03-15T00:45:32;100362.84;;;28.00;55.65
63395;BME280;49531;-34.520;150.798;2023-03-15T00:47:59;100372.88;;;28.04;55.78
63395;BME280;49531;-34.520;150.798;2023-03-15T00:50:26;100370.13;;;27.96;55.79
63395;BME280;49531;-34.520;150.798;2023-03-15T00:52:54;100365.44;;;28.05;55.86
63395;BME280;49531;-34.520;150.798;2023-03-15T00:55:21;100357.69;;;28.07;55.33
63395;BME280;49531;-34.520;150.798;2023-03-15T00:57:48;100350.25;;;28.07;54.99
63395;BME280;49531;-34.520;150.798;2023-03-15T01:00:18;100354.97;;;28.15;55.27
63395;BME280;49531;-34.520;150.798;2023-03-15T01:02:48;100338.66;;;28.19;55.32
63395;BME280;49531;-34.520;150.798;2023-03-15T01:05:16;100350.59;;;28.06;55.37
63395;BME280;49531;-34.520;150.798;2023-03-15T01:07:43;100349.31;;;28.12;55.45
63395;BME280;49531;-34.520;150.798;2023-03-15T01:10:11;100341.03;;;28.03;54.68
63395;BME280;49531;-34.520;150.798;2023-03-15T01:12:40;100331.63;;;27.78;54.94
63395;BME280;49531;-34.520;150.798;2023-03-15T01:15:10;100340.72;;;28.05;55.24
63395;BME280;49531;-34.520;150.798;2023-03-15T01:17:38;100321.69;;;28.08;55.09
63395;BME280;49531;-34.520;150.798;2023-03-15T01:20:06;100329.28;;;28.11;55.25
63395;BME280;49531;-34.520;150.798;2023-03-15T01:22:33;100319.31;;;28.24;55.04
63395;BME280;49531;-34.520;150.798;2023-03-15T01:25:01;100315.44;;;28.25;55.22
63395;BME280;49531;-34.520;150.798;2023-03-15T01:27:28;100320.41;;;28.40;55.31
63395;BME280;49531;-34.520;150.798;2023-03-15T01:29:55;100316.25;;;28.34;55.39
63395;BME280;49531;-34.520;150.798;2023-03-15T01:32:22;100304.59;;;28.46;55.63
63395;BME280;49531;-34.520;150.798;2023-03-15T01:34:49;100305.72;;;28.53;55.21
63395;BME280;49531;-34.520;150.798;2023-03-15T01:37:16;100302.66;;;28.55;55.21
63395;BME280;49531;-34.520;150.798;2023-03-15T01:39:44;100300.69;;;28.55;55.06
63395;BME280;49531;-34.520;150.798;2023-03-15T01:42:11;100289.53;;;28.61;55.22
63395;BME280;49531;-34.520;150.798;2023-03-15T01:44:51;100293.59;;;28.63;55.12
63395;BME280;49531;-34.520;150.798;2023-03-15T01:47:19;100297.31;;;28.67;54.97
63395;BME280;49531;-34.520;150.798;2023-03-15T01:49:55;100288.41;;;28.70;54.74
63395;BME280;49531;-34.520;150.798;2023-03-15T01:52:29;100290.03;;;28.71;54.81
63395;BME280;49531;-34.520;150.798;2023-03-15T01:55:11;100272.56;;;28.76;54.54
63395;BME280;49531;-34.520;150.798;2023-03-15T01:57:49;100266.25;;;28.75;54.70
63395;BME280;49531;-34.520;150.798;2023-03-15T02:00:18;100270.63;;;28.76;54.44
63395;BME280;49531;-34.520;150.798;2023-03-15T02:02:53;100270.63;;;28.76;54.54
63395;BME280;49531;-34.520;150.798;2023-03-15T02:05:26;100261.22;;;28.77;54.46
63395;BME280;49531;-34.520;150.798;2023-03-15T02:07:54;100245.38;;;28.74;54.50
63395;BME280;49531;-34.520;150.798;2023-03-15T02:10:29;100254.59;;;28.78;54.44
63395;BME280;49531;-34.520;150.798;2023-03-15T02:12:57;100251.19;;;28.81;54.63
63395;BME280;49531;-34.520;150.798;2023-03-15T02:15:26;100249.25;;;28.82;54.44
63395;BME280;49531;-34.520;150.798;2023-03-15T02:17:53;100249.75;;;28.84;54.51
63395;BME280;49531;-34.520;150.798;2023-03-15T02:20:48;100243.59;;;28.87;54.51
63395;BME280;49531;-34.520;150.798;2023-03-15T02:23:19;100239.53;;;28.84;54.54
63395;BME280;49531;-34.520;150.798;2023-03-15T02:28:42;100233.72;;;28.86;54.44
63395;BME280;49531;-34.520;150.798;2023-03-15T02:31:09;100232.75;;;28.91;54.34
63395;BME280;49531;-34.520;150.798;2023-03-15T02:33:44;100241.31;;;28.89;54.49
63395;BME280;49531;-34.520;150.798;2023-03-15T02:36:20;100247.78;;;28.93;54.21
63395;BME280;49531;-34.520;150.798;2023-03-15T02:38:48;100232.75;;;28.91;54.33
63395;BME280;49531;-34.520;150.798;2023-03-15T02:41:30;100233.69;;;28.95;53.96
63395;BME280;49531;-34.520;150.798;2023-03-15T02:44:06;100222.03;;;28.98;54.14
63395;BME280;49531;-34.520;150.798;2023-03-15T02:46:35;100229.00;;;28.95;53.99
63395;BME280;49531;-34.520;150.798;2023-03-15T02:49:03;100225.78;;;28.93;54.11
63395;BME280;49531;-34.520;150.798;2023-03-15T02:51:32;100233.03;;;28.98;54.09
63395;BME280;49531;-34.520;150.798;2023-03-15T02:53:59;100223.81;;;29.02;54.17
63395;BME280;49531;-34.520;150.798;2023-03-15T02:56:27;100216.88;;;28.96;54.32
63395;BME280;49531;-34.520;150.798;2023-03-15T02:58:54;100224.13;;;29.01;54.04
63395;BME280;49531;-34.520;150.798;2023-03-15T03:01:21;100221.06;;;29.02;54.02
63395;BME280;49531;-34.520;150.798;2023-03-15T03:03:48;100217.81;;;29.00;53.97
63395;BME280;49531;-34.520;150.798;2023-03-15T03:06:16;100213.63;;;29.03;54.19
63395;BME280;49531;-34.520;150.798;2023-03-15T03:08:44;100220.41;;;29.05;53.66
63395;BME280;49531;-34.520;150.798;2023-03-15T03:11:14;100211.50;;;29.08;53.94
63395;BME280;49531;-34.520;150.798;2023-03-15T03:13:41;100209.41;;;29.05;54.01
63395;BME280;49531;-34.520;150.798;2023-03-15T03:16:09;100199.06;;;29.02;53.95
63395;BME280;49531;-34.520;150.798;2023-03-15T03:18:36;100207.00;;;28.95;54.15
63395;BME280;49531;-34.520;150.798;2023-03-15T03:21:05;100205.25;;;28.91;54.07
63395;BME280;49531;-34.520;150.798;2023-03-15T03:23:34;100205.56;;;28.89;54.05
63395;BME280;49531;-34.520;150.798;2023-03-15T03:26:03;100197.66;;;28.87;54.02
63395;BME280;49531;-34.520;150.798;2023-03-15T03:28:37;100195.03;;;29.00;53.82
63395;BME280;49531;-34.520;150.798;2023-03-15T03:31:04;100205.03;;;29.04;53.78
63395;BME280;49531;-34.520;150.798;2023-03-15T03:33:31;100204.84;;;29.09;53.97
63395;BME280;49531;-34.520;150.798;2023-03-15T03:36:01;100199.50;;;29.13;53.67
63395;BME280;49531;-34.520;150.798;2023-03-15T03:38:29;100199.50;;;29.13;53.73
63395;BME280;49531;-34.520;150.798;2023-03-15T03:40:56;100194.00;;;29.13;53.62
63395;BME280;49531;-34.520;150.798;2023-03-15T03:43:23;100190.44;;;29.12;53.79
63395;BME280;49531;-34.520;150.798;2023-03-15T03:45:50;100182.19;;;29.12;53.79
63395;BME280;49531;-34.520;150.798;2023-03-15T03:48:17;100199.66;;;29.16;53.90
63395;BME280;49531;-34.520;150.798;2023-03-15T03:50:44;100192.06;;;29.13;53.99
63395;BME280;49531;-34.520;150.798;2023-03-15T03:53:11;100186.41;;;29.10;53.80
63395;BME280;49531;-34.520;150.798;2023-03-15T03:55:39;100189.78;;;29.15;53.68
63395;BME280;49531;-34.520;150.798;2023-03-15T03:58:08;100186.56;;;29.13;53.83
63395;BME280;49531;-34.520;150.798;2023-03-15T04:00:35;100184.13;;;29.12;54.25
63395;BME280;49531;-34.520;150.798;2023-03-15T04:03:02;100183.47;;;29.15;53.72
63395;BME280;49531;-34.520;150.798;2023-03-15T04:05:30;100173.94;;;29.12;53.92
63395;BME280;49531;-34.520;150.798;2023-03-15T04:07:57;100171.44;;;29.19;53.85
63395;BME280;49531;-34.520;150.798;2023-03-15T04:10:24;100174.34;;;29.23;53.63
63395;BME280;49531;-34.520;150.798;2023-03-15T04:12:54;100182.91;;;29.21;53.59
63395;BME280;49531;-34.520;150.798;2023-03-15T04:15:22;100178.38;;;29.26;53.57
63395;BME280;49531;-34.520;150.798;2023-03-15T04:17:51;100175.16;;;29.24;53.58
63395;BME280;49531;-34.520;150.798;2023-03-15T04:20:22;100161.25;;;28.91;54.03
63395;BME280;49531;-34.520;150.798;2023-03-15T04:22:49;100163.13;;;29.07;53.27
63395;BME280;49531;-34.520;150.798;2023-03-15T04:25:17;100149.38;;;29.07;52.60
63395;BME280;49531;-34.520;150.798;2023-03-15T04:27:45;100158.28;;;29.04;52.59
63395;BME280;49531;-34.520;150.798;2023-03-15T04:30:25;100166.16;;;29.14;53.21
63395;BME280;49531;-34.520;150.798;2023-03-15T04:32:53;100163.94;;;29.08;53.44
63395;BME280;49531;-34.520;150.798;2023-03-15T04:35:26;100163.13;;;29.07;53.80
63395;BME280;49531;-34.520;150.798;2023-03-15T04:37:53;100159.75;;;29.02;54.01
63395;BME280;49531;-34.520;150.798;2023-03-15T04:40:21;100161.19;;;29.08;52.69
63395;BME280;49531;-34.520;150.798;2023-03-15T04:42:50;100166.91;;;28.94;53.08
63395;BME280;49531;-34.520;150.798;2023-03-15T04:47:45;100159.34;;;28.82;52.42
63395;BME280;49531;-34.520;150.798;2023-03-15T04:50:12;100161.16;;;28.70;52.58
63395;BME280;49531;-34.520;150.798;2023-03-15T04:52:39;100159.19;;;28.79;52.68
63395;BME280;49531;-34.520;150.798;2023-03-15T04:55:07;100154.03;;;28.77;52.54
63395;BME280;49531;-34.520;150.798;2023-03-15T04:57:34;100152.72;;;28.83;52.64
63395;BME280;49531;-34.520;150.798;2023-03-15T05:00:03;100162.38;;;28.81;52.42
63395;BME280;49531;-34.520;150.798;2023-03-15T05:02:35;100148.84;;;28.76;52.67
63395;BME280;49531;-34.520;150.798;2023-03-15T05:05:06;100152.97;;;28.99;52.22
63395;BME280;49531;-34.520;150.798;2023-03-15T05:07:34;100156.84;;;28.98;52.06
63395;BME280;49531;-34.520;150.798;2023-03-15T05:10:02;100141.97;;;28.99;52.28
63395;BME280;49531;-34.520;150.798;2023-03-15T05:12:30;100149.09;;;29.00;51.89
63395;BME280;49531;-34.520;150.798;2023-03-15T05:14:59;100152.00;;;28.95;52.40
63395;BME280;49531;-34.520;150.798;2023-03-15T05:17:26;100156.19;;;29.01;52.48
63395;BME280;49531;-34.520;150.798;2023-03-15T05:19:53;100152.00;;;28.95;52.23
63395;BME280;49531;-34.520;150.798;2023-03-15T05:22:20;100157.16;;;29.05;51.93
63395;BME280;49531;-34.520;150.798;2023-03-15T05:24:51;100155.53;;;29.04;52.09
63395;BME280;49531;-34.520;150.798;2023-03-15T05:27:19;100152.06;;;29.16;51.92
63395;BME280;49531;-34.520;150.798;2023-03-15T05:29:47;100149.91;;;29.21;51.71
63395;BME280;49531;-34.520;150.798;2023-03-15T05:32:16;100155.41;;;29.21;51.69
63395;BME280;49531;-34.520;150.798;2023-03-15T05:34:43;100160.88;;;29.01;52.16
63395;BME280;49531;-34.520;150.798;2023-03-15T05:37:10;100165.28;;;28.93;52.07
63395;BME280;49531;-34.520;150.798;2023-03-15T05:39:37;100170.13;;;28.96;51.85
63395;BME280;49531;-34.520;150.798;2023-03-15T05:42:04;100175.38;;;28.72;52.67
63395;BME280;49531;-34.520;150.798;2023-03-15T05:44:31;100166.25;;;28.42;53.44
63395;BME280;49531;-34.520;150.798;2023-03-15T05:46:59;100154.88;;;28.69;52.69
63395;BME280;49531;-34.520;150.798;2023-03-15T05:49:26;100158.28;;;28.58;52.89
63395;BME280;49531;-34.520;150.798;2023-03-15T05:51:53;100161.47;;;28.77;52.24
63395;BME280;49531;-34.520;150.798;2023-03-15T05:54:20;100160.50;;;28.73;52.53
63395;BME280;49531;-34.520;150.798;2023-03-15T05:56:47;100153.53;;;28.84;52.44
63395;BME280;49531;-34.520;150.798;2023-03-15T05:59:14;100149.75;;;28.50;53.15
63395;BME280;49531;-34.520;150.798;2023-03-15T06:01:41;100147.16;;;28.54;53.09
63395;BME280;49531;-34.520;150.798;2023-03-15T06:04:08;100149.41;;;28.61;52.88
63395;BME280;49531;-34.520;150.798;2023-03-15T06:06:36;100151.19;;;28.57;52.92
63395;BME280;49531;-34.520;150.798;2023-03-15T06:09:03;100154.53;;;28.71;52.52
63395;BME280;49531;-34.520;150.798;2023-03-15T06:11:30;100159.19;;;28.79;52.45
63395;BME280;49531;-34.520;150.798;2023-03-15T06:13:57;100164.63;;;28.96;52.52
63395;BME280;49531;-34.520;150.798;2023-03-15T06:16:24;100157.03;;;28.93;52.81
63395;BME280;49531;-34.520;150.798;2023-03-15T06:18:51;100146.09;;;28.76;52.34
63395;BME280;49531;-34.520;150.798;2023-03-15T06:21:18;100161.41;;;28.94;52.22
63395;BME280;49531;-34.520;150.798;2023-03-15T06:23:45;100168.69;;;28.90;52.23
63395;BME280;49531;-34.520;150.798;2023-03-15T06:26:13;100168.28;;;28.71;52.59
63395;BME280;49531;-34.520;150.798;2023-03-15T06:28:41;100164.63;;;28.49;52.87
63395;BME280;49531;-34.520;150.798;2023-03-15T06:31:14;100161.69;;;28.54;52.58
63395;BME280;49531;-34.520;150.798;2023-03-15T06:33:40;100147.91;;;28.72;52.80
63395;BME280;49531;-34.520;150.798;2023-03-15T06:36:07;100147.56;;;28.73;52.73
63395;BME280;49531;-34.520;150.798;2023-03-15T06:38:35;100145.22;;;28.46;53.23
63395;BME280;49531;-34.520;150.798;2023-03-15T06:41:03;100144.72;;;28.52;53.08
63395;BME280;49531;-34.520;150.798;2023-03-15T06:43:31;100148.09;;;28.58;53.04
63395;BME280;49531;-34.520;150.798;2023-03-15T06:45:58;100147.56;;;28.73;52.79
63395;BME280;49531;-34.520;150.798;2023-03-15T06:48:27;100155.53;;;28.58;52.95
63395;BME280;49531;-34.520;150.798;2023-03-15T06:50:54;100153.28;;;28.60;52.89
63395;BME280;49531;-34.520;150.798;2023-03-15T06:53:21;100163.13;;;28.61;53.01
63395;BME280;49531;-34.520;150.798;2023-03-15T06:55:48;100167.97;;;28.64;53.18
63395;BME280;49531;-34.520;150.798;2023-03-15T06:58:15;100169.63;;;28.47;53.13
63395;BME280;49531;-34.520;150.798;2023-03-15T07:00:45;100175.13;;;28.47;53.22
63395;BME280;49531;-34.520;150.798;2023-03-15T07:03:15;100170.66;;;28.17;53.99
63395;BME280;49531;-34.520;150.798;2023-03-15T07:05:42;100182.28;;;28.31;53.75
63395;BME280;49531;-34.520;150.798;2023-03-15T07:08:09;100171.00;;;28.24;53.93
63395;BME280;49531;-34.520;150.798;2023-03-15T07:10:36;100160.97;;;28.28;53.73
63395;BME280;49531;-34.520;150.798;2023-03-15T07:13:03;100171.25;;;28.40;53.72
63395;BME280;49531;-34.520;150.798;2023-03-15T07:15:32;100174.16;;;28.43;53.35
63395;BME280;49531;-34.520;150.798;2023-03-15T07:18:00;100178.25;;;28.37;53.47
63395;BME280;49531;-34.520;150.798;2023-03-15T07:20:27;100171.94;;;28.11;54.42
63395;BME280;49531;-34.520;150.798;2023-03-15T07:22:54;100167.59;;;28.10;54.41
63395;BME280;49531;-34.520;150.798;2023-03-15T07:25:21;100163.09;;;28.23;54.02
63395;BME280;49531;-34.520;150.798;2023-03-15T07:27:50;100159.00;;;28.20;54.18
63395;BME280;49531;-34.520;150.798;2023-03-15T07:30:19;100154.06;;;27.96;54.84
63395;BME280;49531;-34.520;150.798;2023-03-15T07:32:47;100156.81;;;27.87;55.22
63395;BME280;49531;-34.520;150.798;2023-03-15T07:35:14;100159.38;;;27.75;55.13
63395;BME280;49531;-34.520;150.798;2023-03-15T07:37:43;100169.53;;;28.09;54.54
63395;BME280;49531;-34.520;150.798;2023-03-15T07:40:11;100167.59;;;28.10;54.46
63395;BME280;49531;-34.520;150.798;2023-03-15T07:42:39;100173.19;;;28.39;53.79
63395;BME280;49531;-34.520;150.798;2023-03-15T07:45:08;100172.25;;;28.18;54.35
63395;BME280;49531;-34.520;150.798;2023-03-15T07:47:35;100176.66;;;28.28;54.00
63395;BME280;49531;-34.520;150.798;2023-03-15T07:50:04;100176.63;;;28.02;54.46
63395;BME280;49531;-34.520;150.798;2023-03-15T07:52:31;100174.03;;;28.14;54.21
63395;BME280;49531;-34.520;150.798;2023-03-15T07:54:59;100176.09;;;28.43;53.46
63395;BME280;49531;-34.520;150.798;2023-03-15T07:57:26;100181.09;;;28.58;52.98
63395;BME280;49531;-34.520;150.798;2023-03-15T07:59:53;100181.72;;;28.64;52.70
63395;BME280;49531;-34.520;150.798;2023-03-15T08:02:20;100176.72;;;28.57;52.89
63395;BME280;49531;-34.520;150.798;2023-03-15T08:04:47;100183.38;;;28.47;52.98
63395;BME280;49531;-34.520;150.798;2023-03-15T08:07:16;100180.63;;;28.47;53.11
63395;BME280;49531;-34.520;150.798;2023-03-15T08:09:43;100184.66;;;28.50;52.95
63395;BME280;49531;-34.520;150.798;2023-03-15T08:12:11;100195.66;;;28.50;53.00
63395;BME280;49531;-34.520;150.798;2023-03-15T08:14:38;100192.25;;;28.44;53.22
63395;BME280;49531;-34.520;150.798;2023-03-15T08:17:05;100190.53;;;28.31;53.78
63395;BME280;49531;-34.520;150.798;2023-03-15T08:19:38;100190.22;;;27.98;54.70
63395;BME280;49531;-34.520;150.798;2023-03-15T08:22:05;100198.13;;;27.82;55.38
63395;BME280;49531;-34.520;150.798;2023-03-15T08:24:33;100197.94;;;28.13;54.30
63395;BME280;49531;-34.520;150.798;2023-03-15T08:27:00;100196.16;;;28.17;54.26
63395;BME280;49531;-34.520;150.798;2023-03-15T08:29:28;100202.50;;;28.27;53.68
63395;BME280;49531;-34.520;150.798;2023-03-15T08:31:55;100212.50;;;28.23;54.16
63395;BME280;49531;-34.520;150.798;2023-03-15T08:34:24;100202.63;;;28.13;54.53
63395;BME280;49531;-34.520;150.798;2023-03-15T08:36:51;100208.47;;;27.85;55.27
63395;BME280;49531;-34.520;150.798;2023-03-15T08:39:18;100202.16;;;28.11;54.41
63395;BME280;49531;-34.520;150.798;2023-03-15T08:41:45;100213.13;;;28.19;54.21
63395;BME280;49531;-34.520;150.798;2023-03-15T08:44:12;100221.69;;;28.18;54.48
63395;BME280;49531;-34.520;150.798;2023-03-15T08:46:39;100223.47;;;28.05;54.78
63395;BME280;49531;-34.520;150.798;2023-03-15T08:49:07;100213.94;;;27.85;55.37
63395;BME280;49531;-34.520;150.798;2023-03-15T08:51:34;100214.13;;;27.80;55.42
63395;BME280;49531;-34.520;150.798;2023-03-15T08:54:01;100221.69;;;27.83;55.28
63395;BME280;49531;-34.520;150.798;2023-03-15T08:56:29;100229.47;;;27.90;55.28
63395;BME280;49531;-34.520;150.798;2023-03-15T08:58:57;100220.25;;;27.95;54.89
63395;BME280;49531;-34.520;150.798;2023-03-15T09:01:24;100229.47;;;27.99;54.84
63395;BME280;49531;-34.520;150.798;2023-03-15T09:03:51;100226.72;;;27.99;54.78
63395;BME280;49531;-34.520;150.798;2023-03-15T09:06:19;100220.06;;;28.00;54.75
63395;BME280;49531;-34.520;150.798;2023-03-15T09:08:46;100230.41;;;28.03;54.71
63395;BME280;49531;-34.520;150.798;2023-03-15T09:11:13;100233.66;;;28.05;54.52
63395;BME280;49531;-34.520;150.798;2023-03-15T09:13:40;100234.59;;;28.00;54.41
63395;BME280;49531;-34.520;150.798;2023-03-15T09:16:07;100237.53;;;28.04;54.65
63395;BME280;49531;-34.520;150.798;2023-03-15T09:18:34;100248.19;;;28.05;54.49
63395;BME280;49531;-34.520;150.798;2023-03-15T09:21:03;100262.22;;;28.04;54.55
63395;BME280;49531;-34.520;150.798;2023-03-15T09:23:30;100264.50;;;28.02;54.52
63395;BME280;49531;-34.520;150.798;2023-03-15T09:25:57;100266.59;;;28.05;54.50
63395;BME280;49531;-34.520;150.798;2023-03-15T09:28:24;100274.03;;;27.96;54.73
63395;BME280;49531;-34.520;150.798;2023-03-15T09:30:52;100281.44;;;28.04;54.66
63395;BME280;49531;-34.520;150.798;2023-03-15T09:33:20;100281.28;;;28.00;54.59
63395;BME280;49531;-34.520;150.798;2023-03-15T09:35:51;100284.03;;;28.00;54.61
63395;BME280;49531;-34.520;150.798;2023-03-15T09:38:20;100301.63;;;27.99;54.74
63395;BME280;49531;-34.520;150.798;2023-03-15T09:40:49;100303.59;;;27.99;54.64
63395;BME280;49531;-34.520;150.798;2023-03-15T09:43:50;100308.59;;;27.97;54.64
63395;BME280;49531;-34.520;150.798;2023-03-15T09:46:28;100311.06;;;28.33;53.53
63395;BME280;49531;-34.520;150.798;2023-03-15T09:49:24;100316.53;;;28.50;53.13
63395;BME280;49531;-34.520;150.798;2023-03-15T09:52:02;100313.31;;;28.57;52.95
63395;BME280;49531;-34.520;150.798;2023-03-15T09:54:43;100318.16;;;28.60;52.91
63395;BME280;49531;-34.520;150.798;2023-03-15T09:57:20;100325.91;;;28.66;52.66
63395;BME280;49531;-34.520;150.798;2023-03-15T09:59:51;100330.75;;;28.69;52.76
63395;BME280;49531;-34.520;150.798;2023-03-15T10:02:27;100332.88;;;28.64;52.83
63395;BME280;49531;-34.520;150.798;2023-03-15T10:05:03;100345.47;;;28.65;52.87
63395;BME280;49531;-34.520;150.798;2023-03-15T10:07:33;100350.50;;;28.71;52.82
63395;BME280;49531;-34.520;150.798;2023-03-15T10:10:00;100361.81;;;28.70;52.75
63395;BME280;49531;-34.520;150.798;2023-03-15T10:12:33;100355.66;;;28.73;52.77
63395;BME280;49531;-34.520;150.798;2023-03-15T10:15:27;100346.44;;;28.69;52.61
63395;BME280;49531;-34.520;150.798;2023-03-15T10:18:14;100353.72;;;28.73;52.77
63395;BME280;49531;-34.520;150.798;2023-03-15T10:20:48;100360.03;;;28.74;52.72
63395;BME280;49531;-34.520;150.798;2023-03-15T10:23:27;100363.59;;;28.74;52.78
63395;BME280;49531;-34.520;150.798;2023-03-15T10:25:58;100365.53;;;28.74;52.66
63395;BME280;49531;-34.520;150.798;2023-03-15T10:28:29;100358.91;;;28.75;52.72
63395;BME280;49531;-34.520;150.798;2023-03-15T10:30:59;100361.66;;;28.75;52.70
63395;BME280;49531;-34.520;150.798;2023-03-15T10:33:33;100361.66;;;28.75;52.68
63395;BME280;49531;-34.520;150.798;2023-03-15T10:36:15;100354.03;;;28.72;52.85
63395;BME280;49531;-34.520;150.798;2023-03-15T10:38:44;100358.69;;;28.80;52.55
63395;BME280;49531;-34.520;150.798;2023-03-15T10:41:14;100353.56;;;28.78;52.54
63395;BME280;49531;-34.520;150.798;2023-03-15T10:44:00;100346.94;;;28.71;52.66
63395;BME280;49531;-34.520;150.798;2023-03-15T10:46:28;100356.00;;;28.71;52.72
63395;BME280;49531;-34.520;150.798;2023-03-15T10:48:58;100366.50;;;28.78;52.67
63395;BME280;49531;-34.520;150.798;2023-03-15T10:51:30;100368.59;;;28.72;52.65
63395;BME280;49531;-34.520;150.798;2023-03-15T10:54:02;100376.53;;;28.74;52.65
63395;BME280;49531;-34.520;150.798;2023-03-15T10:56:36;100383.63;;;28.75;52.62
63395;BME280;49531;-34.520;150.798;2023-03-15T10:59:15;100376.84;;;28.72;52.54
63395;BME280;49531;-34.520;150.798;2023-03-15T11:01:47;100377.81;;;28.68;52.67
63395;BME280;49531;-34.520;150.798;2023-03-15T11:04:18;100384.13;;;28.68;52.59
63395;BME280;49531;-34.520;150.798;2023-03-15T11:06:51;100379.09;;;28.62;52.60
63395;BME280;49531;-34.520;150.798;2023-03-15T11:09:26;100373.94;;;28.69;52.65
63395;BME280;49531;-34.520;150.798;2023-03-15T11:12:05;100376.03;;;28.63;52.54
63395;BME280;49531;-34.520;150.798;2023-03-15T11:14:36;100365.84;;;28.64;52.66
63395;BME280;49531;-34.520;150.798;2023-03-15T11:17:05;100373.63;;;28.62;52.78
63395;BME280;49531;-34.520;150.798;2023-03-15T11:19:39;100366.34;;;28.57;52.73
63395;BME280;49531;-34.520;150.798;2023-03-15T11:22:11;100355.03;;;28.59;52.73
63395;BME280;49531;-34.520;150.798;2023-03-15T11:24:39;100351.13;;;28.60;52.65
63395;BME280;49531;-34.520;150.798;2023-03-15T11:27:13;100346.13;;;28.62;52.60
63395;BME280;49531;-34.520;150.798;2023-03-15T11:29:48;100343.53;;;28.57;52.80
63395;BME280;49531;-34.520;150.798;2023-03-15T11:32:21;100341.28;;;28.59;52.49
63395;BME280;49531;-34.520;150.798;2023-03-15T11:35:05;100336.44;;;28.55;52.63
63395;BME280;49531;-34.520;150.798;2023-03-15T11:37:41;100343.53;;;28.57;52.52
63395;BME280;49531;-34.520;150.798;2023-03-15T11:40:20;100343.22;;;28.49;52.66
63395;BME280;49531;-34.520;150.798;2023-03-15T11:42:53;100344.84;;;28.50;52.56
63395;BME280;49531;-34.520;150.798;2023-03-15T11:45:35;100334.97;;;28.49;52.42
63395;BME280;49531;-34.520;150.798;2023-03-15T11:48:24;100337.06;;;28.52;52.62
63395;BME280;49531;-34.520;150.798;2023-03-15T11:50:54;100324.63;;;28.46;52.29
63395;BME280;49531;-34.520;150.798;2023-03-15T11:53:24;100327.38;;;28.46;52.51
63395;BME280;49531;-34.520;150.798;2023-03-15T11:55:53;100324.78;;;28.41;52.63
63395;BME280;49531;-34.520;150.798;2023-03-15T11:58:34;100333.50;;;28.43;52.59
63395;BME280;49531;-34.520;150.798;2023-03-15T12:01:05;100327.22;;;28.43;52.55
63395;BME280;49531;-34.520;150.798;2023-03-15T12:03:41;100327.84;;;28.40;52.42
63395;BME280;49531;-34.520;150.798;2023-03-15T12:06:13;100330.59;;;28.40;52.53
63395;BME280;49531;-34.520;150.798;2023-03-15T12:08:59;100319.47;;;28.36;52.61
63395;BME280;49531;-34.520;150.798;2023-03-15T12:11:40;100313.50;;;28.34;52.42
63395;BME280;49531;-34.520;150.798;2023-03-15T12:14:25;100308.81;;;28.35;52.52
63395;BME280;49531;-34.520;150.798;2023-03-15T12:20:07;100316.56;;;28.33;52.46
63395;BME280;49531;-34.520;150.798;2023-03-15T12:22:35;100310.25;;;28.32;52.47
63395;BME280;49531;-34.520;150.798;2023-03-15T12:25:13;100301.22;;;28.32;52.47
63395;BME280;49531;-34.520;150.798;2023-03-15T12:27:49;100307.03;;;28.30;52.29
63395;BME280;49531;-34.520;150.798;2023-03-15T12:30:22;100298.94;;;28.25;52.35
63395;BME280;49531;-34.520;150.798;2023-03-15T12:32:53;100292.47;;;28.21;52.50
63395;BME280;49531;-34.520;150.798;2023-03-15T12:35:24;100294.09;;;28.22;52.34
63395;BME280;49531;-34.520;150.798;2023-03-15T12:37:55;100297.97;;;28.21;52.49
63395;BME280;49531;-34.520;150.798;2023-03-15T12:40:37;100296.31;;;28.20;52.40
63395;BME280;49531;-34.520;150.798;2023-03-15T12:43:05;100295.84;;;28.18;52.60